createdAt,value
2016-12-18T00:00:44.532Z,112.50
2016-12-18T00:01:45.030Z,112.50
2016-12-18T00:02:45.562Z,135.00
2016-12-18T00:03:46.094Z,135.00
2016-12-18T00:04:46.771Z,135.00
2016-12-18T00:05:47.295Z,157.50
2016-12-18T00:06:47.677Z,157.50
2016-12-18T00:07:48.211Z,180.00
2016-12-18T00:08:48.743Z,225.00
2016-12-18T00:09:49.274Z,157.50
2016-12-18T00:10:49.956Z,157.50
2016-12-18T00:11:50.335Z,135.00
2016-12-18T00:12:50.862Z,135.00
2016-12-18T00:13:51.394Z,135.00
2016-12-18T00:14:52.079Z,112.50
2016-12-18T00:15:52.457Z,135.00
2016-12-18T00:16:53.134Z,180.00
2016-12-18T00:17:53.514Z,180.00
2016-12-18T00:18:54.192Z,180.00
2016-12-18T00:19:54.574Z,157.50
2016-12-18T00:20:55.102Z,157.50
2016-12-18T00:21:55.632Z,157.50
2016-12-18T00:22:56.163Z,135.00
2016-12-18T00:23:56.842Z,135.00
2016-12-18T00:24:57.377Z,135.00
2016-12-18T00:25:57.752Z,135.00
2016-12-18T00:26:58.304Z,135.00
2016-12-18T00:27:58.817Z,135.00
2016-12-18T00:28:59.345Z,112.50
2016-12-18T00:29:59.876Z,112.50
2016-12-18T00:31:00.557Z,112.50
2016-12-18T00:32:00.946Z,112.50
2016-12-18T00:33:01.511Z,135.00
2016-12-18T00:34:02.010Z,135.00
2016-12-18T00:35:02.573Z,270.00
2016-12-18T00:36:03.220Z,315.00
2016-12-18T00:37:03.600Z,247.50
2016-12-18T00:38:04.133Z,202.50
2016-12-18T00:39:04.664Z,202.50
2016-12-18T00:40:05.192Z,180.00
2016-12-18T00:41:05.720Z,180.00
2016-12-18T00:42:06.253Z,157.50
2016-12-18T00:43:06.784Z,135.00
2016-12-18T00:44:07.460Z,112.50
2016-12-18T00:45:07.848Z,135.00
2016-12-18T00:46:08.523Z,135.00
2016-12-18T00:47:09.054Z,112.50
2016-12-18T00:48:09.436Z,180.00
2016-12-18T00:49:09.990Z,180.00
2016-12-18T00:50:10.500Z,135.00
2016-12-18T00:51:11.179Z,135.00
2016-12-18T00:52:11.703Z,112.50
2016-12-18T00:53:12.238Z,112.50
2016-12-18T00:54:12.620Z,112.50
2016-12-18T00:55:13.145Z,135.00
2016-12-18T00:56:13.676Z,157.50
2016-12-18T00:57:14.207Z,135.00
2016-12-18T00:58:14.737Z,157.50
2016-12-18T00:59:15.297Z,135.00
2016-12-18T01:00:15.941Z,112.50
2016-12-18T01:01:16.338Z,157.50
2016-12-18T01:02:16.859Z,180.00
2016-12-18T01:03:17.387Z,180.00
2016-12-18T01:04:17.920Z,202.50
2016-12-18T01:05:18.751Z,180.00
2016-12-18T01:06:19.129Z,157.50
2016-12-18T01:07:19.665Z,157.50
2016-12-18T01:08:20.043Z,157.50
2016-12-18T01:09:20.728Z,157.50
2016-12-18T01:10:21.110Z,180.00
2016-12-18T01:11:21.678Z,180.00
2016-12-18T01:12:22.182Z,135.00
2016-12-18T01:13:22.741Z,180.00
2016-12-18T01:14:23.240Z,180.00
2016-12-18T01:15:23.772Z,202.50
2016-12-18T01:16:24.298Z,180.00
2016-12-18T01:17:24.977Z,202.50
2016-12-18T01:18:25.506Z,202.50
2016-12-18T01:19:26.046Z,157.50
2016-12-18T01:20:26.426Z,112.50
2016-12-18T01:21:26.958Z,135.00
2016-12-18T01:22:27.484Z,180.00
2016-12-18T01:23:28.159Z,180.00
2016-12-18T01:24:28.540Z,180.00
2016-12-18T01:25:29.071Z,180.00
2016-12-18T01:26:29.601Z,180.00
2016-12-18T01:27:30.132Z,202.50
2016-12-18T01:28:30.808Z,202.50
2016-12-18T01:29:31.340Z,202.50
2016-12-18T01:30:31.725Z,225.00
2016-12-18T01:31:32.269Z,292.50
2016-12-18T01:32:32.787Z,270.00
2016-12-18T01:33:33.344Z,292.50
2016-12-18T01:34:33.850Z,292.50
2016-12-18T01:35:34.527Z,202.50
2016-12-18T01:36:34.908Z,202.50
2016-12-18T01:37:35.586Z,270.00
2016-12-18T01:38:35.968Z,247.50
2016-12-18T01:39:36.501Z,202.50
2016-12-18T01:40:37.036Z,225.00
2016-12-18T01:41:37.557Z,247.50
2016-12-18T01:42:38.085Z,225.00
2016-12-18T01:43:38.769Z,202.50
2016-12-18T01:44:39.152Z,157.50
2016-12-18T01:45:39.854Z,157.50
2016-12-18T01:46:40.210Z,180.00
2016-12-18T01:47:40.738Z,180.00
2016-12-18T01:48:41.271Z,180.00
2016-12-18T01:49:41.824Z,225.00
2016-12-18T01:50:42.477Z,202.50
2016-12-18T01:51:42.895Z,202.50
2016-12-18T01:52:43.394Z,180.00
2016-12-18T01:53:44.081Z,202.50
2016-12-18T01:54:44.466Z,225.00
2016-12-18T01:55:45.148Z,247.50
2016-12-18T01:56:45.536Z,225.00
2016-12-18T01:57:46.088Z,202.50
2016-12-18T01:58:46.746Z,247.50
2016-12-18T01:59:47.156Z,270.00
2016-12-18T02:00:47.660Z,270.00
2016-12-18T02:01:48.186Z,247.50
2016-12-18T02:02:48.720Z,337.50
2016-12-18T02:03:49.396Z,337.50
2016-12-18T02:04:49.779Z,270.00
2016-12-18T02:05:50.303Z,180.00
2016-12-18T02:06:50.978Z,180.00
2016-12-18T02:07:51.395Z,135.00
2016-12-18T02:08:52.037Z,157.50
2016-12-18T02:09:52.570Z,180.00
2016-12-18T02:10:52.952Z,180.00
2016-12-18T02:11:53.634Z,157.50
2016-12-18T02:12:54.156Z,202.50
2016-12-18T02:13:54.572Z,202.50
2016-12-18T02:14:55.214Z,202.50
2016-12-18T02:15:55.626Z,270.00
2016-12-18T02:16:56.275Z,225.00
2016-12-18T02:17:56.696Z,202.50
2016-12-18T02:18:57.195Z,202.50
2016-12-18T02:19:57.753Z,202.50
2016-12-18T02:20:58.397Z,180.00
2016-12-18T02:21:58.780Z,180.00
2016-12-18T02:22:59.310Z,135.00
2016-12-18T02:23:59.991Z,135.00
2016-12-18T02:25:00.369Z,180.00
2016-12-18T02:26:01.051Z,180.00
2016-12-18T02:27:01.575Z,180.00
2016-12-18T02:28:01.963Z,135.00
2016-12-18T02:29:02.631Z,135.00
2016-12-18T02:30:03.016Z,180.00
2016-12-18T02:31:03.540Z,202.50
2016-12-18T02:32:04.069Z,180.00
2016-12-18T02:33:04.607Z,135.00
2016-12-18T02:34:05.138Z,180.00
2016-12-18T02:35:05.701Z,180.00
2016-12-18T02:36:06.234Z,157.50
2016-12-18T02:37:06.889Z,180.00
2016-12-18T02:38:07.275Z,225.00
2016-12-18T02:39:07.809Z,225.00
2016-12-18T02:40:08.483Z,157.50
2016-12-18T02:41:08.864Z,135.00
2016-12-18T02:42:09.546Z,112.50
2016-12-18T02:43:09.929Z,135.00
2016-12-18T02:44:10.484Z,135.00
2016-12-18T02:45:11.132Z,112.50
2016-12-18T02:46:11.663Z,157.50
2016-12-18T02:47:12.190Z,157.50
2016-12-18T02:48:12.608Z,135.00
2016-12-18T02:49:13.253Z,112.50
2016-12-18T02:50:13.783Z,90.00
2016-12-18T02:51:14.164Z,135.00
2016-12-18T02:52:14.727Z,135.00
2016-12-18T02:53:15.225Z,135.00
2016-12-18T02:54:15.905Z,112.50
2016-12-18T02:55:16.287Z,112.50
2016-12-18T02:56:16.856Z,135.00
2016-12-18T02:57:17.495Z,157.50
2016-12-18T02:58:17.876Z,157.50
2016-12-18T02:59:18.409Z,135.00
2016-12-18T03:00:18.935Z,90.00
2016-12-18T03:01:19.466Z,135.00
2016-12-18T03:02:19.999Z,135.00
2016-12-18T03:03:20.530Z,135.00
2016-12-18T03:04:21.060Z,135.00
2016-12-18T03:05:21.602Z,135.00
2016-12-18T03:06:22.270Z,135.00
2016-12-18T03:07:22.795Z,112.50
2016-12-18T03:08:23.178Z,135.00
2016-12-18T03:09:23.707Z,157.50
2016-12-18T03:10:24.236Z,157.50
2016-12-18T03:11:24.771Z,157.50
2016-12-18T03:12:25.294Z,135.00
2016-12-18T03:13:25.828Z,135.00
2016-12-18T03:14:26.400Z,135.00
2016-12-18T03:15:26.904Z,135.00
2016-12-18T03:16:27.459Z,135.00
2016-12-18T03:17:27.967Z,135.00
2016-12-18T03:18:30.598Z,135.00
2016-12-18T03:19:29.028Z,135.00
2016-12-18T03:20:29.554Z,112.50
2016-12-18T03:21:30.084Z,135.00
2016-12-18T03:22:30.612Z,135.00
2016-12-18T03:23:31.143Z,135.00
2016-12-18T03:24:31.824Z,112.50
2016-12-18T03:25:32.202Z,112.50
2016-12-18T03:26:32.734Z,157.50
2016-12-18T03:27:33.264Z,157.50
2016-12-18T03:28:33.943Z,202.50
2016-12-18T03:29:34.328Z,202.50
2016-12-18T03:30:34.887Z,202.50
2016-12-18T03:31:35.383Z,202.50
2016-12-18T03:32:35.936Z,180.00
2016-12-18T03:33:36.447Z,157.50
2016-12-18T03:34:36.972Z,157.50
2016-12-18T03:35:37.501Z,180.00
2016-12-18T03:36:38.034Z,180.00
2016-12-18T03:37:38.561Z,180.00
2016-12-18T03:38:39.246Z,135.00
2016-12-18T03:39:39.626Z,180.00
2016-12-18T03:40:40.306Z,202.50
2016-12-18T03:41:40.714Z,202.50
2016-12-18T03:42:41.252Z,202.50
2016-12-18T03:43:41.893Z,180.00
2016-12-18T03:44:42.428Z,180.00
2016-12-18T03:45:42.955Z,180.00
2016-12-18T03:46:43.637Z,202.50
2016-12-18T03:47:44.013Z,202.50
2016-12-18T03:48:44.394Z,135.00
2016-12-18T03:49:45.074Z,180.00
2016-12-18T03:50:45.453Z,180.00
2016-12-18T03:51:45.987Z,180.00
2016-12-18T03:52:46.543Z,180.00
2016-12-18T03:53:47.051Z,180.00
2016-12-18T03:54:47.586Z,180.00
2016-12-18T03:55:48.119Z,180.00
2016-12-18T03:56:48.654Z,180.00
2016-12-18T03:57:49.181Z,180.00
2016-12-18T03:58:49.712Z,180.00
2016-12-18T03:59:50.245Z,157.50
2016-12-18T04:00:50.799Z,157.50
2016-12-18T04:01:51.307Z,135.00
2016-12-18T04:02:51.854Z,157.50
2016-12-18T04:03:52.361Z,180.00
2016-12-18T04:04:52.888Z,202.50
2016-12-18T04:05:53.568Z,202.50
2016-12-18T04:06:53.951Z,180.00
2016-12-18T04:07:54.480Z,270.00
2016-12-18T04:08:55.005Z,315.00
2016-12-18T04:09:55.540Z,337.50
2016-12-18T04:10:56.071Z,337.50
2016-12-18T04:11:56.600Z,157.50
2016-12-18T04:12:57.163Z,135.00
2016-12-18T04:13:57.808Z,180.00
2016-12-18T04:14:58.224Z,315.00
2016-12-18T04:15:58.720Z,292.50
2016-12-18T04:16:59.254Z,247.50
2016-12-18T04:17:59.925Z,67.50
2016-12-18T04:19:00.310Z,157.50
2016-12-18T04:20:00.864Z,157.50
2016-12-18T04:21:01.367Z,157.50
2016-12-18T04:22:01.907Z,135.00
2016-12-18T04:23:02.581Z,157.50
2016-12-18T04:24:02.962Z,180.00
2016-12-18T04:25:03.486Z,225.00
2016-12-18T04:26:04.167Z,225.00
2016-12-18T04:27:04.548Z,337.50
2016-12-18T04:28:05.079Z,337.50
2016-12-18T04:29:05.608Z,337.50
2016-12-18T04:30:06.137Z,337.50
2016-12-18T04:31:06.668Z,180.00
2016-12-18T04:32:07.348Z,112.50
2016-12-18T04:33:07.731Z,315.00
2016-12-18T04:34:08.269Z,315.00
2016-12-18T04:35:08.827Z,292.50
2016-12-18T04:36:09.368Z,45.00
2016-12-18T04:37:09.909Z,67.50
2016-12-18T04:38:10.409Z,45.00
2016-12-18T04:39:10.973Z,112.50
2016-12-18T04:40:11.471Z,112.50
2016-12-18T04:41:12.000Z,45.00
2016-12-18T04:42:12.526Z,45.00
2016-12-18T04:43:13.207Z,90.00
2016-12-18T04:44:13.591Z,112.50
2016-12-18T04:45:14.266Z,90.00
2016-12-18T04:46:14.795Z,45.00
2016-12-18T04:47:15.176Z,67.50
2016-12-18T04:48:15.709Z,45.00
2016-12-18T04:49:16.235Z,45.00
2016-12-18T04:50:16.766Z,67.50
2016-12-18T04:51:17.447Z,45.00
2016-12-18T04:52:17.831Z,45.00
2016-12-18T04:53:18.360Z,45.00
2016-12-18T04:54:18.889Z,90.00
2016-12-18T04:55:19.567Z,135.00
2016-12-18T04:56:19.946Z,202.50
2016-12-18T04:57:20.478Z,202.50
2016-12-18T04:58:21.152Z,247.50
2016-12-18T04:59:21.685Z,247.50
2016-12-18T05:00:22.071Z,202.50
2016-12-18T05:01:22.751Z,202.50
2016-12-18T05:02:23.128Z,202.50
2016-12-18T05:03:23.660Z,225.00
2016-12-18T05:04:24.344Z,45.00
2016-12-18T05:05:24.869Z,45.00
2016-12-18T05:06:25.397Z,315.00
2016-12-18T05:07:25.927Z,337.50
2016-12-18T05:08:26.455Z,247.50
2016-12-18T05:09:26.848Z,180.00
2016-12-18T05:10:27.374Z,180.00
2016-12-18T05:11:27.922Z,180.00
2016-12-18T05:12:28.429Z,180.00
2016-12-18T05:13:28.956Z,180.00
2016-12-18T05:14:29.501Z,202.50
2016-12-18T05:15:30.172Z,202.50
2016-12-18T05:16:30.555Z,180.00
2016-12-18T05:17:31.094Z,180.00
2016-12-18T05:18:31.627Z,180.00
2016-12-18T05:19:32.310Z,180.00
2016-12-18T05:20:32.839Z,180.00
2016-12-18T05:21:33.220Z,270.00
2016-12-18T05:22:33.750Z,202.50
2016-12-18T05:23:34.284Z,337.50
2016-12-18T05:24:34.960Z,337.50
2016-12-18T05:25:35.346Z,45.00
2016-12-18T05:26:36.023Z,157.50
2016-12-18T05:27:36.557Z,157.50
2016-12-18T05:28:37.084Z,135.00
2016-12-18T05:29:37.616Z,157.50
2016-12-18T05:30:38.145Z,180.00
2016-12-18T05:31:38.553Z,180.00
2016-12-18T05:32:39.061Z,157.50
2016-12-18T05:33:39.593Z,157.50
2016-12-18T05:34:40.123Z,180.00
2016-12-18T05:35:40.800Z,180.00
2016-12-18T05:36:41.327Z,180.00
2016-12-18T05:37:41.713Z,157.50
2016-12-18T05:38:42.239Z,180.00
2016-12-18T05:39:42.766Z,225.00
2016-12-18T05:40:43.299Z,180.00
2016-12-18T05:41:43.830Z,225.00
2016-12-18T05:42:44.359Z,247.50
2016-12-18T05:43:44.881Z,247.50
2016-12-18T05:44:45.560Z,337.50
2016-12-18T05:45:45.940Z,337.50
2016-12-18T05:46:46.624Z,337.50
2016-12-18T05:47:47.054Z,337.50
2016-12-18T05:48:47.678Z,337.50
2016-12-18T05:49:48.059Z,90.00
2016-12-18T05:50:48.589Z,90.00
2016-12-18T05:51:49.121Z,202.50
2016-12-18T05:52:49.653Z,202.50
2016-12-18T05:53:50.188Z,180.00
2016-12-18T05:54:50.863Z,180.00
2016-12-18T05:55:51.248Z,157.50
2016-12-18T05:56:51.781Z,157.50
2016-12-18T05:57:52.463Z,135.00
2016-12-18T05:58:52.996Z,157.50
2016-12-18T05:59:53.381Z,157.50
2016-12-18T06:00:53.913Z,180.00
2016-12-18T06:01:54.589Z,157.50
2016-12-18T06:02:55.001Z,157.50
2016-12-18T06:03:55.496Z,225.00
2016-12-18T06:04:56.029Z,225.00
2016-12-18T06:05:56.708Z,225.00
2016-12-18T06:06:57.097Z,180.00
2016-12-18T06:07:57.622Z,180.00
2016-12-18T06:08:58.156Z,202.50
2016-12-18T06:09:58.684Z,202.50
2016-12-18T06:10:59.216Z,270.00
2016-12-18T06:11:59.749Z,315.00
2016-12-18T06:13:00.277Z,135.00
2016-12-18T06:14:00.959Z,180.00
2016-12-18T06:15:01.484Z,157.50
2016-12-18T06:16:02.015Z,90.00
2016-12-18T06:17:02.401Z,90.00
2016-12-18T06:18:03.078Z,90.00
2016-12-18T06:19:03.466Z,112.50
2016-12-18T06:20:03.989Z,292.50
2016-12-18T06:21:04.669Z,225.00
2016-12-18T06:22:05.088Z,337.50
2016-12-18T06:23:05.740Z,337.50
2016-12-18T06:24:06.269Z,202.50
2016-12-18T06:25:06.642Z,157.50
2016-12-18T06:26:07.172Z,157.50
2016-12-18T06:27:07.703Z,157.50
2016-12-18T06:28:08.264Z,157.50
2016-12-18T06:29:08.758Z,157.50
2016-12-18T06:30:09.438Z,157.50
2016-12-18T06:31:09.818Z,180.00
2016-12-18T06:32:10.500Z,180.00
2016-12-18T06:33:10.882Z,180.00
2016-12-18T06:34:11.429Z,180.00
2016-12-18T06:35:11.940Z,180.00
2016-12-18T06:36:12.618Z,180.00
2016-12-18T06:37:13.148Z,180.00
2016-12-18T06:38:13.535Z,180.00
2016-12-18T06:39:14.072Z,202.50
2016-12-18T06:40:14.749Z,225.00
2016-12-18T06:41:15.280Z,225.00
2016-12-18T06:42:15.816Z,225.00
2016-12-18T06:43:16.199Z,180.00
2016-12-18T06:44:16.725Z,180.00
2016-12-18T06:45:17.400Z,180.00
2016-12-18T06:46:17.784Z,180.00
2016-12-18T06:47:18.314Z,180.00
2016-12-18T06:48:18.844Z,180.00
2016-12-18T06:49:19.523Z,157.50
2016-12-18T06:50:19.910Z,180.00
2016-12-18T06:51:20.436Z,202.50
2016-12-18T06:52:20.995Z,225.00
2016-12-18T06:53:21.500Z,180.00
2016-12-18T06:54:22.176Z,225.00
2016-12-18T06:55:22.559Z,337.50
2016-12-18T06:56:23.241Z,337.50
2016-12-18T06:57:23.621Z,337.50
2016-12-18T06:58:24.149Z,292.50
2016-12-18T06:59:24.682Z,202.50
2016-12-18T07:00:25.373Z,45.00
2016-12-18T07:01:25.759Z,45.00
2016-12-18T07:02:26.421Z,22.50
2016-12-18T07:03:26.948Z,22.50
2016-12-18T07:04:27.328Z,22.50
2016-12-18T07:05:27.873Z,22.50
2016-12-18T07:06:28.542Z,22.50
2016-12-18T07:07:29.069Z,45.00
2016-12-18T07:08:29.485Z,135.00
2016-12-18T07:09:29.987Z,135.00
2016-12-18T07:10:30.539Z,135.00
2016-12-18T07:11:31.045Z,135.00
2016-12-18T07:12:31.588Z,135.00
2016-12-18T07:13:32.110Z,135.00
2016-12-18T07:14:32.639Z,135.00
2016-12-18T07:15:33.175Z,135.00
2016-12-18T07:16:33.856Z,135.00
2016-12-18T07:17:34.239Z,135.00
2016-12-18T07:18:34.920Z,180.00
2016-12-18T07:19:35.306Z,157.50
2016-12-18T07:20:35.989Z,157.50
2016-12-18T07:21:36.364Z,180.00
2016-12-18T07:22:37.047Z,180.00
2016-12-18T07:23:37.572Z,157.50
2016-12-18T07:24:38.105Z,135.00
2016-12-18T07:25:38.636Z,135.00
2016-12-18T07:26:39.021Z,112.50
2016-12-18T07:27:39.549Z,90.00
2016-12-18T07:28:40.226Z,180.00
2016-12-18T07:29:40.751Z,180.00
2016-12-18T07:30:41.286Z,157.50
2016-12-18T07:31:41.661Z,225.00
2016-12-18T07:32:42.190Z,337.50
2016-12-18T07:33:42.722Z,270.00
2016-12-18T07:34:43.276Z,247.50
2016-12-18T07:35:43.927Z,315.00
2016-12-18T07:36:44.460Z,135.00
2016-12-18T07:37:44.987Z,157.50
2016-12-18T07:38:45.404Z,157.50
2016-12-18T07:39:46.049Z,225.00
2016-12-18T07:40:46.459Z,315.00
2016-12-18T07:41:47.109Z,292.50
2016-12-18T07:42:47.657Z,202.50
2016-12-18T07:43:48.030Z,202.50
2016-12-18T07:44:48.553Z,45.00
2016-12-18T07:45:49.232Z,90.00
2016-12-18T07:46:49.618Z,270.00
2016-12-18T07:47:50.144Z,315.00
2016-12-18T07:48:50.674Z,247.50
2016-12-18T07:49:51.234Z,67.50
2016-12-18T07:50:51.732Z,112.50
2016-12-18T07:51:52.268Z,112.50
2016-12-18T07:52:52.825Z,22.50
2016-12-18T07:53:53.478Z,45.00
2016-12-18T07:54:53.860Z,90.00
2016-12-18T07:55:54.390Z,202.50
2016-12-18T07:56:55.070Z,135.00
2016-12-18T07:57:55.601Z,22.50
2016-12-18T07:58:56.021Z,225.00
2016-12-18T07:59:56.679Z,315.00
2016-12-18T08:00:57.053Z,270.00
2016-12-18T08:01:57.735Z,180.00
2016-12-18T08:02:58.269Z,225.00
2016-12-18T08:03:58.656Z,202.50
2016-12-18T08:04:59.181Z,112.50
2016-12-18T08:05:59.738Z,45.00
2016-12-18T08:07:00.396Z,315.00
2016-12-18T08:08:00.774Z,337.50
2016-12-18T08:09:01.306Z,337.50
2016-12-18T08:10:01.833Z,337.50
2016-12-18T08:11:02.363Z,337.50
2016-12-18T08:12:02.889Z,337.50
2016-12-18T08:13:03.416Z,337.50
2016-12-18T08:14:04.092Z,337.50
2016-12-18T08:15:04.480Z,0.00
2016-12-18T08:16:05.005Z,337.50
2016-12-18T08:17:05.687Z,337.50
2016-12-18T08:18:06.209Z,337.50
2016-12-18T08:19:06.619Z,292.50
2016-12-18T08:20:07.122Z,337.50
2016-12-18T08:21:07.649Z,337.50
2016-12-18T08:22:08.182Z,202.50
2016-12-18T08:23:08.861Z,180.00
2016-12-18T08:24:09.241Z,180.00
2016-12-18T08:25:09.923Z,157.50
2016-12-18T08:26:10.304Z,157.50
2016-12-18T08:27:10.832Z,292.50
2016-12-18T08:28:11.514Z,157.50
2016-12-18T08:29:11.892Z,67.50
2016-12-18T08:30:12.426Z,292.50
2016-12-18T08:31:12.988Z,270.00
2016-12-18T08:32:13.481Z,202.50
2016-12-18T08:33:14.013Z,180.00
2016-12-18T08:34:14.542Z,157.50
2016-12-18T08:35:15.082Z,135.00
2016-12-18T08:36:15.749Z,135.00
2016-12-18T08:37:16.276Z,135.00
2016-12-18T08:38:16.664Z,112.50
2016-12-18T08:39:17.226Z,112.50
2016-12-18T08:40:17.731Z,135.00
2016-12-18T08:41:18.410Z,135.00
2016-12-18T08:42:18.794Z,180.00
2016-12-18T08:43:19.328Z,202.50
2016-12-18T08:44:19.856Z,202.50
2016-12-18T08:45:20.414Z,202.50
2016-12-18T08:46:20.920Z,157.50
2016-12-18T08:47:21.897Z,157.50
2016-12-18T08:48:21.977Z,135.00
2016-12-18T08:49:22.509Z,135.00
2016-12-18T08:50:23.041Z,135.00
2016-12-18T08:51:23.590Z,157.50
2016-12-18T08:52:24.096Z,157.50
2016-12-18T08:53:24.625Z,157.50
2016-12-18T08:54:25.300Z,225.00
2016-12-18T08:55:25.683Z,247.50
2016-12-18T08:56:26.365Z,67.50
2016-12-18T08:57:26.746Z,135.00
2016-12-18T08:58:27.277Z,157.50
2016-12-18T08:59:27.959Z,135.00
2016-12-18T09:00:28.339Z,157.50
2016-12-18T09:01:28.934Z,180.00
2016-12-18T09:02:29.545Z,292.50
2016-12-18T09:03:29.927Z,337.50
2016-12-18T09:04:30.482Z,337.50
2016-12-18T09:05:31.139Z,337.50
2016-12-18T09:06:31.514Z,135.00
2016-12-18T09:07:32.045Z,67.50
2016-12-18T09:08:32.575Z,67.50
2016-12-18T09:09:33.137Z,225.00
2016-12-18T09:10:33.781Z,202.50
2016-12-18T09:11:34.312Z,202.50
2016-12-18T09:12:34.692Z,180.00
2016-12-18T09:13:35.370Z,180.00
2016-12-18T09:14:35.751Z,157.50
2016-12-18T09:15:36.287Z,157.50
2016-12-18T09:16:36.809Z,157.50
2016-12-18T09:17:37.489Z,180.00
2016-12-18T09:18:37.867Z,180.00
2016-12-18T09:19:38.399Z,180.00
2016-12-18T09:20:38.933Z,180.00
2016-12-18T09:21:39.465Z,180.00
2016-12-18T09:22:40.010Z,180.00
2016-12-18T09:23:40.534Z,157.50
2016-12-18T09:24:41.067Z,180.00
2016-12-18T09:25:41.744Z,202.50
2016-12-18T09:26:42.131Z,202.50
2016-12-18T09:27:42.678Z,202.50
2016-12-18T09:28:43.331Z,180.00
2016-12-18T09:29:43.712Z,157.50
2016-12-18T09:30:44.244Z,202.50
2016-12-18T09:31:44.944Z,315.00
2016-12-18T09:32:45.305Z,247.50
2016-12-18T09:33:45.835Z,292.50
2016-12-18T09:34:46.391Z,315.00
2016-12-18T09:35:46.891Z,315.00
2016-12-18T09:36:47.568Z,337.50
2016-12-18T09:37:47.950Z,337.50
2016-12-18T09:38:48.480Z,337.50
2016-12-18T09:39:49.162Z,337.50
2016-12-18T09:40:49.540Z,337.50
2016-12-18T09:41:50.221Z,337.50
2016-12-18T09:42:50.602Z,337.50
2016-12-18T09:43:51.132Z,315.00
2016-12-18T09:44:51.667Z,315.00
2016-12-18T09:45:52.195Z,292.50
2016-12-18T09:46:52.725Z,270.00
2016-12-18T09:47:53.286Z,315.00
2016-12-18T09:48:53.797Z,337.50
2016-12-18T09:49:54.314Z,337.50
2016-12-18T09:50:54.845Z,337.50
2016-12-18T09:51:55.412Z,315.00
2016-12-18T09:52:55.905Z,337.50
2016-12-18T09:53:56.583Z,202.50
2016-12-18T09:54:56.964Z,315.00
2016-12-18T09:55:57.646Z,337.50
2016-12-18T09:56:58.025Z,337.50
2016-12-18T09:57:58.706Z,225.00
2016-12-18T09:58:59.087Z,247.50
2016-12-18T09:59:59.768Z,225.00
2016-12-18T10:01:00.155Z,315.00
2016-12-18T10:02:00.689Z,270.00
2016-12-18T10:03:01.364Z,292.50
2016-12-18T10:04:01.784Z,292.50
2016-12-18T10:05:02.281Z,315.00
2016-12-18T10:06:02.824Z,292.50
2016-12-18T10:07:03.341Z,315.00
2016-12-18T10:08:03.868Z,315.00
2016-12-18T10:09:04.404Z,315.00
2016-12-18T10:10:04.930Z,337.50
2016-12-18T10:11:05.459Z,337.50
2016-12-18T10:12:06.139Z,247.50
2016-12-18T10:13:06.515Z,292.50
2016-12-18T10:14:07.045Z,315.00
2016-12-18T10:15:07.576Z,292.50
2016-12-18T10:16:08.104Z,292.50
2016-12-18T10:17:08.783Z,292.50
2016-12-18T10:18:09.311Z,292.50
2016-12-18T10:19:09.691Z,292.50
2016-12-18T10:20:10.229Z,292.50
2016-12-18T10:21:10.754Z,292.50
2016-12-18T10:22:11.291Z,292.50
2016-12-18T10:23:11.815Z,270.00
2016-12-18T10:24:12.498Z,292.50
2016-12-18T10:25:13.025Z,292.50
2016-12-18T10:26:13.558Z,315.00
2016-12-18T10:27:14.084Z,315.00
2016-12-18T10:28:14.615Z,292.50
2016-12-18T10:29:15.000Z,292.50
2016-12-18T10:30:15.527Z,292.50
2016-12-18T10:31:16.205Z,292.50
2016-12-18T10:32:16.738Z,292.50
2016-12-18T10:33:17.123Z,315.00
2016-12-18T10:34:17.679Z,315.00
2016-12-18T10:35:18.180Z,292.50
2016-12-18T10:36:18.740Z,315.00
2016-12-18T10:37:19.384Z,315.00
2016-12-18T10:38:19.913Z,292.50
2016-12-18T10:39:20.294Z,270.00
2016-12-18T10:40:20.975Z,270.00
2016-12-18T10:41:21.381Z,292.50
2016-12-18T10:42:21.895Z,292.50
2016-12-18T10:43:22.440Z,292.50
2016-12-18T10:44:22.972Z,315.00
2016-12-18T10:45:23.502Z,292.50
2016-12-18T10:46:24.039Z,315.00
2016-12-18T10:47:24.561Z,292.50
2016-12-18T10:48:25.090Z,292.50
2016-12-18T10:49:25.620Z,292.50
2016-12-18T10:50:26.149Z,247.50
2016-12-18T10:51:26.685Z,292.50
2016-12-18T10:52:27.357Z,270.00
2016-12-18T10:53:27.739Z,292.50
2016-12-18T10:54:28.263Z,292.50
2016-12-18T10:55:28.795Z,270.00
2016-12-18T10:56:29.477Z,270.00
2016-12-18T10:57:30.002Z,270.00
2016-12-18T10:58:30.409Z,247.50
2016-12-18T10:59:31.215Z,270.00
2016-12-18T11:00:31.442Z,270.00
2016-12-18T11:01:31.976Z,247.50
2016-12-18T11:02:32.507Z,270.00
2016-12-18T11:03:33.039Z,247.50
2016-12-18T11:04:33.568Z,270.00
2016-12-18T11:05:34.104Z,270.00
2016-12-18T11:06:34.785Z,247.50
2016-12-18T11:07:35.162Z,247.50
2016-12-18T11:08:35.729Z,270.00
2016-12-18T11:09:36.371Z,292.50
2016-12-18T11:10:36.903Z,292.50
2016-12-18T11:11:37.287Z,292.50
2016-12-18T11:12:37.815Z,247.50
2016-12-18T11:13:38.341Z,247.50
2016-12-18T11:14:38.873Z,247.50
2016-12-18T11:15:39.405Z,270.00
2016-12-18T11:16:40.085Z,270.00
2016-12-18T11:17:40.465Z,247.50
2016-12-18T11:18:41.144Z,247.50
2016-12-18T11:19:41.523Z,292.50
2016-12-18T11:20:42.204Z,247.50
2016-12-18T11:21:42.589Z,270.00
2016-12-18T11:22:43.272Z,270.00
2016-12-18T11:23:43.663Z,270.00
2016-12-18T11:24:44.205Z,292.50
2016-12-18T11:25:45.027Z,315.00
2016-12-18T11:26:45.258Z,315.00
2016-12-18T11:27:45.795Z,247.50
2016-12-18T11:28:46.346Z,247.50
2016-12-18T11:29:46.999Z,270.00
2016-12-18T11:30:47.409Z,270.00
2016-12-18T11:31:47.920Z,247.50
2016-12-18T11:32:48.594Z,270.00
2016-12-18T11:33:49.122Z,270.00
2016-12-18T11:34:49.654Z,270.00
2016-12-18T11:35:50.181Z,270.00
2016-12-18T11:36:50.563Z,270.00
2016-12-18T11:37:51.106Z,247.50
2016-12-18T11:38:51.775Z,292.50
2016-12-18T11:39:52.161Z,270.00
2016-12-18T11:40:52.688Z,292.50
2016-12-18T11:41:53.222Z,292.50
2016-12-18T11:42:53.759Z,292.50
2016-12-18T11:43:54.278Z,270.00
2016-12-18T11:44:54.958Z,270.00
2016-12-18T11:45:55.341Z,270.00
2016-12-18T11:46:56.019Z,270.00
2016-12-18T11:47:56.547Z,270.00
2016-12-18T11:48:56.946Z,292.50
2016-12-18T11:49:57.462Z,292.50
2016-12-18T11:50:58.036Z,292.50
2016-12-18T11:51:58.522Z,247.50
2016-12-18T11:52:59.205Z,247.50
2016-12-18T11:53:59.583Z,292.50
2016-12-18T11:55:00.257Z,247.50
2016-12-18T11:56:00.783Z,225.00
2016-12-18T11:57:01.173Z,225.00
2016-12-18T11:58:01.698Z,292.50
2016-12-18T11:59:02.226Z,270.00
2016-12-18T12:00:02.758Z,270.00
2016-12-18T12:01:03.286Z,247.50
2016-12-18T12:02:03.965Z,270.00
2016-12-18T12:03:04.503Z,292.50
2016-12-18T12:04:04.915Z,292.50
2016-12-18T12:05:05.425Z,247.50
2016-12-18T12:06:05.955Z,247.50
2016-12-18T12:07:06.639Z,247.50
2016-12-18T12:08:07.020Z,247.50
2016-12-18T12:09:07.549Z,270.00
2016-12-18T12:10:08.078Z,315.00
2016-12-18T12:11:08.610Z,315.00
2016-12-18T12:12:09.147Z,270.00
2016-12-18T12:13:09.679Z,315.00
2016-12-18T12:14:10.206Z,315.00
2016-12-18T12:15:10.885Z,292.50
2016-12-18T12:16:11.268Z,270.00
2016-12-18T12:17:11.828Z,247.50
2016-12-18T12:18:12.471Z,180.00
2016-12-18T12:19:12.855Z,270.00
2016-12-18T12:20:13.533Z,247.50
2016-12-18T12:21:13.919Z,247.50
2016-12-18T12:22:14.595Z,247.50
2016-12-18T12:23:15.014Z,225.00
2016-12-18T12:24:15.522Z,270.00
2016-12-18T12:25:16.073Z,315.00
2016-12-18T12:26:16.718Z,292.50
2016-12-18T12:27:17.125Z,247.50
2016-12-18T12:28:17.639Z,270.00
2016-12-18T12:29:18.163Z,270.00
2016-12-18T12:30:18.692Z,292.50
2016-12-18T12:31:19.374Z,292.50
2016-12-18T12:32:19.758Z,270.00
2016-12-18T12:33:20.322Z,247.50
2016-12-18T12:34:20.825Z,315.00
2016-12-18T12:35:21.350Z,315.00
2016-12-18T12:36:21.906Z,247.50
2016-12-18T12:37:22.413Z,225.00